Pagina principale
METAR-TAF:

METAR-TAF

Aeroporti :

Aeroporto di Tolone-Hyères

Tolone, Francia

latitudine: 43-06N, longitudine: 006-09E, altezza: 3 m

Osservazione

Il bollettino è stato emesso 21 minuti fa, alle 17:00 UTC
Vento 4 kt da nord-ovest
Temperature 9°C
Umidità 57%
Pressione 1018 hPa
Visibilità: 9000 m

METAR: LFTH 201700Z AUTO 31004KT 9000 NSC 09/01 Q1018 NOSIG

Ora: 18:21 (17:21 UTC)

Previsione

Il bollettino è stato emesso 3 ore e 21 minuti fa, alle 14:00 UTC
Previsione valida dal 20 alle 15 UTC al 21 alle 15 UTC
Vento 8 kt da direzioni variabili
Visibilità 10 km o più
nessuna nube inferiore a 1500 m e nessun cumulonembo
Evoluzione graduale
dal 20 alle 18 UTC al 20 alle 20 UTC
Vento 10 kt da nord
Temporaneamente
dal 20 alle 23 UTC al 21 alle 09 UTC
Nubi sparse ad un'altezza di 1500 ft

TAF: LFTH 201400Z 2015/2115 VRB08KT CAVOK BECMG 2018/2020 35010KT TEMPO 2023/2109 SCT015

Osservazioni e previsioni meteorologiche di più di 4000 aeroporti (messaggi METAR e TAF).

Le stazioni disponibili sono rappresentate dai dischi gialli e rossi sulla carta.

Puntare il mouse per vedere il nome della stazione.

Clicca sopra per visualizzare le osservazioni e previsioni meteorologiche.

Per cambiare la mappa : fare clic sui pulsanti verdi con una croce nera per ingrandire, il pulsante verde con un trattino per diminuire, o sulla freccia verde per le mappe adiacenti.


METAR-TAF: